sensor_id;sensor_type;location;lat;lon;timestamp;P1;durP1;ratioP1;P2;durP2;ratioP2
52354;SDS011;38286;51.156;17.038;2023-03-08T00:01:39;21.65;;;9.63;;
52354;SDS011;38286;51.156;17.038;2023-03-08T00:04:05;21.23;;;9.73;;
52354;SDS011;38286;51.156;17.038;2023-03-08T00:06:30;22.88;;;11.20;;
52354;SDS011;38286;51.156;17.038;2023-03-08T00:08:57;25.58;;;10.23;;
52354;SDS011;38286;51.156;17.038;2023-03-08T00:11:23;19.17;;;9.27;;
52354;SDS011;38286;51.156;17.038;2023-03-08T00:13:49;22.33;;;9.75;;
52354;SDS011;38286;51.156;17.038;2023-03-08T00:16:16;20.88;;;9.98;;
52354;SDS011;38286;51.156;17.038;2023-03-08T00:18:42;20.13;;;10.20;;
52354;SDS011;38286;51.156;17.038;2023-03-08T00:21:13;20.85;;;9.98;;
52354;SDS011;38286;51.156;17.038;2023-03-08T00:23:40;22.15;;;9.70;;
52354;SDS011;38286;51.156;17.038;2023-03-08T00:26:06;21.85;;;8.73;;
52354;SDS011;38286;51.156;17.038;2023-03-08T00:28:32;20.38;;;9.55;;
52354;SDS011;38286;51.156;17.038;2023-03-08T00:30:59;19.88;;;8.63;;
52354;SDS011;38286;51.156;17.038;2023-03-08T00:33:26;20.52;;;9.48;;
52354;SDS011;38286;51.156;17.038;2023-03-08T00:35:57;20.50;;;9.10;;
52354;SDS011;38286;51.156;17.038;2023-03-08T00:38:23;19.58;;;8.73;;
52354;SDS011;38286;51.156;17.038;2023-03-08T00:40:49;21.98;;;9.63;;
52354;SDS011;38286;51.156;17.038;2023-03-08T00:43:14;20.30;;;9.52;;
52354;SDS011;38286;51.156;17.038;2023-03-08T00:45:40;21.20;;;10.15;;
52354;SDS011;38286;51.156;17.038;2023-03-08T00:48:06;20.63;;;10.27;;
52354;SDS011;38286;51.156;17.038;2023-03-08T00:50:31;20.10;;;9.18;;
52354;SDS011;38286;51.156;17.038;2023-03-08T00:52:57;20.27;;;9.80;;
52354;SDS011;38286;51.156;17.038;2023-03-08T00:55:23;24.30;;;9.52;;
52354;SDS011;38286;51.156;17.038;2023-03-08T00:57:48;22.45;;;9.65;;
52354;SDS011;38286;51.156;17.038;2023-03-08T01:00:14;21.48;;;10.18;;
52354;SDS011;38286;51.156;17.038;2023-03-08T01:02:40;21.40;;;10.32;;
52354;SDS011;38286;51.156;17.038;2023-03-08T01:05:06;22.15;;;10.18;;
52354;SDS011;38286;51.156;17.038;2023-03-08T01:07:32;24.75;;;10.15;;
52354;SDS011;38286;51.156;17.038;2023-03-08T01:09:58;21.67;;;9.02;;
52354;SDS011;38286;51.156;17.038;2023-03-08T01:12:24;18.20;;;9.15;;
52354;SDS011;38286;51.156;17.038;2023-03-08T01:14:50;17.67;;;8.75;;
52354;SDS011;38286;51.156;17.038;2023-03-08T01:17:16;16.55;;;7.60;;
52354;SDS011;38286;51.156;17.038;2023-03-08T01:19:42;12.63;;;6.30;;
52354;SDS011;38286;51.156;17.038;2023-03-08T01:22:07;13.90;;;6.63;;
52354;SDS011;38286;51.156;17.038;2023-03-08T01:24:33;13.20;;;6.68;;
52354;SDS011;38286;51.156;17.038;2023-03-08T01:26:58;12.52;;;6.50;;
52354;SDS011;38286;51.156;17.038;2023-03-08T01:29:25;12.25;;;6.22;;
52354;SDS011;38286;51.156;17.038;2023-03-08T01:31:52;10.50;;;5.82;;
52354;SDS011;38286;51.156;17.038;2023-03-08T01:34:18;12.55;;;5.88;;
52354;SDS011;38286;51.156;17.038;2023-03-08T01:36:43;11.93;;;6.22;;
52354;SDS011;38286;51.156;17.038;2023-03-08T01:39:09;12.02;;;6.55;;
52354;SDS011;38286;51.156;17.038;2023-03-08T01:41:35;10.63;;;5.88;;
52354;SDS011;38286;51.156;17.038;2023-03-08T01:44:00;12.73;;;6.20;;
52354;SDS011;38286;51.156;17.038;2023-03-08T01:46:27;15.07;;;6.70;;
52354;SDS011;38286;51.156;17.038;2023-03-08T01:54:25;11.00;;;5.70;;
52354;SDS011;38286;51.156;17.038;2023-03-08T01:59:19;12.30;;;5.63;;
52354;SDS011;38286;51.156;17.038;2023-03-08T02:01:46;9.45;;;5.10;;
52354;SDS011;38286;51.156;17.038;2023-03-08T02:04:12;11.90;;;5.70;;
52354;SDS011;38286;51.156;17.038;2023-03-08T02:06:38;10.13;;;4.97;;
52354;SDS011;38286;51.156;17.038;2023-03-08T02:09:05;9.38;;;5.15;;
52354;SDS011;38286;51.156;17.038;2023-03-08T02:11:31;15.32;;;5.72;;
52354;SDS011;38286;51.156;17.038;2023-03-08T02:13:57;9.57;;;5.32;;
52354;SDS011;38286;51.156;17.038;2023-03-08T02:16:23;11.02;;;5.10;;
52354;SDS011;38286;51.156;17.038;2023-03-08T02:18:54;7.50;;;4.32;;
52354;SDS011;38286;51.156;17.038;2023-03-08T02:21:25;12.07;;;5.45;;
52354;SDS011;38286;51.156;17.038;2023-03-08T02:23:51;11.00;;;5.70;;
52354;SDS011;38286;51.156;17.038;2023-03-08T02:26:17;10.43;;;5.30;;
52354;SDS011;38286;51.156;17.038;2023-03-08T02:28:42;6.05;;;3.65;;
52354;SDS011;38286;51.156;17.038;2023-03-08T02:31:08;5.93;;;3.38;;
52354;SDS011;38286;51.156;17.038;2023-03-08T02:33:34;6.50;;;3.65;;
52354;SDS011;38286;51.156;17.038;2023-03-08T02:36:01;5.80;;;3.10;;
52354;SDS011;38286;51.156;17.038;2023-03-08T02:38:27;4.97;;;2.63;;
52354;SDS011;38286;51.156;17.038;2023-03-08T02:40:53;5.72;;;2.80;;
52354;SDS011;38286;51.156;17.038;2023-03-08T02:43:18;5.78;;;2.40;;
52354;SDS011;38286;51.156;17.038;2023-03-08T02:45:44;4.60;;;2.47;;
52354;SDS011;38286;51.156;17.038;2023-03-08T02:48:10;6.18;;;2.97;;
52354;SDS011;38286;51.156;17.038;2023-03-08T02:50:35;9.50;;;2.85;;
52354;SDS011;38286;51.156;17.038;2023-03-08T02:53:02;5.15;;;2.53;;
52354;SDS011;38286;51.156;17.038;2023-03-08T02:55:28;6.10;;;2.60;;
52354;SDS011;38286;51.156;17.038;2023-03-08T02:57:54;6.78;;;2.72;;
52354;SDS011;38286;51.156;17.038;2023-03-08T03:00:19;6.55;;;2.70;;
52354;SDS011;38286;51.156;17.038;2023-03-08T03:02:45;5.15;;;2.22;;
52354;SDS011;38286;51.156;17.038;2023-03-08T03:05:11;4.03;;;2.50;;
52354;SDS011;38286;51.156;17.038;2023-03-08T03:07:38;5.80;;;2.35;;
52354;SDS011;38286;51.156;17.038;2023-03-08T03:10:05;7.80;;;2.40;;
52354;SDS011;38286;51.156;17.038;2023-03-08T03:12:31;4.00;;;2.17;;
52354;SDS011;38286;51.156;17.038;2023-03-08T03:14:57;6.25;;;2.55;;
52354;SDS011;38286;51.156;17.038;2023-03-08T03:17:22;5.18;;;2.80;;
52354;SDS011;38286;51.156;17.038;2023-03-08T03:19:48;4.13;;;2.55;;
52354;SDS011;38286;51.156;17.038;2023-03-08T03:22:14;5.13;;;2.40;;
52354;SDS011;38286;51.156;17.038;2023-03-08T03:24:39;5.05;;;2.72;;
52354;SDS011;38286;51.156;17.038;2023-03-08T03:27:05;4.07;;;2.40;;
52354;SDS011;38286;51.156;17.038;2023-03-08T03:29:30;6.63;;;2.45;;
52354;SDS011;38286;51.156;17.038;2023-03-08T03:31:56;5.20;;;2.22;;
52354;SDS011;38286;51.156;17.038;2023-03-08T03:34:22;5.85;;;2.20;;
52354;SDS011;38286;51.156;17.038;2023-03-08T03:36:47;7.72;;;2.53;;
52354;SDS011;38286;51.156;17.038;2023-03-08T03:39:13;6.00;;;2.65;;
52354;SDS011;38286;51.156;17.038;2023-03-08T03:41:39;5.30;;;2.72;;
52354;SDS011;38286;51.156;17.038;2023-03-08T03:44:04;4.22;;;2.20;;
52354;SDS011;38286;51.156;17.038;2023-03-08T03:46:30;6.53;;;3.08;;
52354;SDS011;38286;51.156;17.038;2023-03-08T03:48:56;7.20;;;3.50;;
52354;SDS011;38286;51.156;17.038;2023-03-08T03:51:22;4.95;;;2.33;;
52354;SDS011;38286;51.156;17.038;2023-03-08T03:53:48;7.45;;;2.63;;
52354;SDS011;38286;51.156;17.038;2023-03-08T03:58:43;4.93;;;2.60;;
52354;SDS011;38286;51.156;17.038;2023-03-08T04:01:11;7.13;;;2.38;;
52354;SDS011;38286;51.156;17.038;2023-03-08T04:04:02;7.00;;;2.38;;
52354;SDS011;38286;51.156;17.038;2023-03-08T04:06:29;4.45;;;2.28;;
52354;SDS011;38286;51.156;17.038;2023-03-08T04:08:56;6.93;;;3.17;;
52354;SDS011;38286;51.156;17.038;2023-03-08T04:11:24;4.60;;;2.50;;
52354;SDS011;38286;51.156;17.038;2023-03-08T04:13:52;6.45;;;2.85;;
52354;SDS011;38286;51.156;17.038;2023-03-08T04:16:20;7.10;;;3.00;;
52354;SDS011;38286;51.156;17.038;2023-03-08T04:18:47;8.80;;;3.42;;
52354;SDS011;38286;51.156;17.038;2023-03-08T04:21:13;8.30;;;2.58;;
52354;SDS011;38286;51.156;17.038;2023-03-08T04:23:38;5.95;;;3.25;;
52354;SDS011;38286;51.156;17.038;2023-03-08T04:26:04;9.75;;;3.20;;
52354;SDS011;38286;51.156;17.038;2023-03-08T04:28:31;6.32;;;2.92;;
52354;SDS011;38286;51.156;17.038;2023-03-08T04:30:58;5.05;;;3.03;;
52354;SDS011;38286;51.156;17.038;2023-03-08T04:33:24;7.13;;;3.22;;
52354;SDS011;38286;51.156;17.038;2023-03-08T04:35:50;5.68;;;3.47;;
52354;SDS011;38286;51.156;17.038;2023-03-08T04:38:16;7.72;;;3.95;;
52354;SDS011;38286;51.156;17.038;2023-03-08T04:40:46;10.05;;;4.20;;
52354;SDS011;38286;51.156;17.038;2023-03-08T04:43:32;8.50;;;3.60;;
52354;SDS011;38286;51.156;17.038;2023-03-08T04:45:58;8.88;;;4.38;;
52354;SDS011;38286;51.156;17.038;2023-03-08T04:48:24;7.75;;;3.55;;
52354;SDS011;38286;51.156;17.038;2023-03-08T04:50:51;9.48;;;4.05;;
52354;SDS011;38286;51.156;17.038;2023-03-08T04:53:20;8.45;;;3.95;;
52354;SDS011;38286;51.156;17.038;2023-03-08T04:55:47;8.32;;;3.92;;
52354;SDS011;38286;51.156;17.038;2023-03-08T04:58:12;8.82;;;3.60;;
52354;SDS011;38286;51.156;17.038;2023-03-08T05:00:38;11.77;;;3.88;;
52354;SDS011;38286;51.156;17.038;2023-03-08T05:03:04;11.85;;;5.28;;
52354;SDS011;38286;51.156;17.038;2023-03-08T05:05:30;11.98;;;5.45;;
52354;SDS011;38286;51.156;17.038;2023-03-08T05:07:56;11.23;;;5.07;;
52354;SDS011;38286;51.156;17.038;2023-03-08T05:10:24;11.75;;;5.10;;
52354;SDS011;38286;51.156;17.038;2023-03-08T05:12:50;12.18;;;5.30;;
52354;SDS011;38286;51.156;17.038;2023-03-08T05:15:16;12.50;;;5.45;;
52354;SDS011;38286;51.156;17.038;2023-03-08T05:17:41;12.55;;;5.65;;
52354;SDS011;38286;51.156;17.038;2023-03-08T05:20:07;16.48;;;6.50;;
52354;SDS011;38286;51.156;17.038;2023-03-08T05:22:33;14.15;;;5.78;;
52354;SDS011;38286;51.156;17.038;2023-03-08T05:24:59;19.45;;;6.72;;
52354;SDS011;38286;51.156;17.038;2023-03-08T05:27:24;15.27;;;6.68;;
52354;SDS011;38286;51.156;17.038;2023-03-08T05:29:50;15.10;;;5.72;;
52354;SDS011;38286;51.156;17.038;2023-03-08T05:32:16;17.50;;;7.15;;
52354;SDS011;38286;51.156;17.038;2023-03-08T05:34:42;17.20;;;6.85;;
52354;SDS011;38286;51.156;17.038;2023-03-08T05:37:08;14.90;;;6.13;;
52354;SDS011;38286;51.156;17.038;2023-03-08T05:39:34;15.90;;;6.63;;
52354;SDS011;38286;51.156;17.038;2023-03-08T05:41:59;13.23;;;5.65;;
52354;SDS011;38286;51.156;17.038;2023-03-08T05:44:25;13.15;;;6.10;;
52354;SDS011;38286;51.156;17.038;2023-03-08T05:46:51;14.25;;;6.13;;
52354;SDS011;38286;51.156;17.038;2023-03-08T05:49:17;14.77;;;6.35;;
52354;SDS011;38286;51.156;17.038;2023-03-08T05:51:42;15.18;;;6.00;;
52354;SDS011;38286;51.156;17.038;2023-03-08T05:54:08;12.18;;;5.55;;
52354;SDS011;38286;51.156;17.038;2023-03-08T05:56:34;13.73;;;6.03;;
52354;SDS011;38286;51.156;17.038;2023-03-08T05:58:59;14.27;;;6.05;;
52354;SDS011;38286;51.156;17.038;2023-03-08T06:01:26;12.23;;;6.07;;
52354;SDS011;38286;51.156;17.038;2023-03-08T06:03:53;17.65;;;6.38;;
52354;SDS011;38286;51.156;17.038;2023-03-08T06:06:20;15.10;;;6.20;;
52354;SDS011;38286;51.156;17.038;2023-03-08T06:08:46;16.50;;;6.53;;
52354;SDS011;38286;51.156;17.038;2023-03-08T06:11:12;20.27;;;7.45;;
52354;SDS011;38286;51.156;17.038;2023-03-08T06:13:38;16.77;;;7.07;;
52354;SDS011;38286;51.156;17.038;2023-03-08T06:16:04;17.00;;;6.60;;
52354;SDS011;38286;51.156;17.038;2023-03-08T06:18:31;14.07;;;5.72;;
52354;SDS011;38286;51.156;17.038;2023-03-08T06:23:24;13.68;;;5.15;;
52354;SDS011;38286;51.156;17.038;2023-03-08T06:25:50;14.55;;;5.47;;
52354;SDS011;38286;51.156;17.038;2023-03-08T06:28:16;11.90;;;4.93;;
52354;SDS011;38286;51.156;17.038;2023-03-08T06:30:42;16.25;;;4.82;;
52354;SDS011;38286;51.156;17.038;2023-03-08T06:33:07;12.98;;;5.45;;
52354;SDS011;38286;51.156;17.038;2023-03-08T06:35:33;10.23;;;4.85;;
52354;SDS011;38286;51.156;17.038;2023-03-08T06:37:59;12.23;;;4.90;;
52354;SDS011;38286;51.156;17.038;2023-03-08T06:40:24;16.60;;;5.97;;
52354;SDS011;38286;51.156;17.038;2023-03-08T06:42:50;10.20;;;5.10;;
52354;SDS011;38286;51.156;17.038;2023-03-08T06:45:15;12.95;;;6.03;;
52354;SDS011;38286;51.156;17.038;2023-03-08T06:47:41;17.95;;;8.02;;
52354;SDS011;38286;51.156;17.038;2023-03-08T06:50:07;16.77;;;7.03;;
52354;SDS011;38286;51.156;17.038;2023-03-08T06:52:33;31.38;;;9.98;;
52354;SDS011;38286;51.156;17.038;2023-03-08T06:55:05;28.92;;;11.75;;
52354;SDS011;38286;51.156;17.038;2023-03-08T06:57:31;31.58;;;11.20;;
52354;SDS011;38286;51.156;17.038;2023-03-08T06:59:57;17.38;;;7.63;;
52354;SDS011;38286;51.156;17.038;2023-03-08T07:02:22;13.80;;;6.03;;
52354;SDS011;38286;51.156;17.038;2023-03-08T07:04:48;9.73;;;4.55;;
52354;SDS011;38286;51.156;17.038;2023-03-08T07:07:14;8.15;;;3.88;;
52354;SDS011;38286;51.156;17.038;2023-03-08T07:09:40;8.48;;;4.47;;
52354;SDS011;38286;51.156;17.038;2023-03-08T07:12:05;7.90;;;4.40;;
52354;SDS011;38286;51.156;17.038;2023-03-08T07:14:31;10.35;;;4.15;;
52354;SDS011;38286;51.156;17.038;2023-03-08T07:16:57;10.60;;;4.03;;
52354;SDS011;38286;51.156;17.038;2023-03-08T07:19:22;7.85;;;4.03;;
52354;SDS011;38286;51.156;17.038;2023-03-08T07:21:48;8.65;;;4.65;;
52354;SDS011;38286;51.156;17.038;2023-03-08T07:24:13;9.50;;;4.47;;
52354;SDS011;38286;51.156;17.038;2023-03-08T07:26:39;8.55;;;5.07;;
52354;SDS011;38286;51.156;17.038;2023-03-08T07:29:05;10.02;;;4.88;;
52354;SDS011;38286;51.156;17.038;2023-03-08T07:31:31;9.40;;;4.57;;
52354;SDS011;38286;51.156;17.038;2023-03-08T07:34:00;7.40;;;4.60;;
52354;SDS011;38286;51.156;17.038;2023-03-08T07:36:29;6.32;;;3.90;;
52354;SDS011;38286;51.156;17.038;2023-03-08T07:38:55;9.80;;;4.07;;
52354;SDS011;38286;51.156;17.038;2023-03-08T07:41:20;12.45;;;5.38;;
52354;SDS011;38286;51.156;17.038;2023-03-08T07:43:46;11.07;;;5.63;;
52354;SDS011;38286;51.156;17.038;2023-03-08T07:46:12;9.85;;;4.68;;
52354;SDS011;38286;51.156;17.038;2023-03-08T07:48:38;11.73;;;4.65;;
52354;SDS011;38286;51.156;17.038;2023-03-08T07:51:04;11.10;;;5.20;;
52354;SDS011;38286;51.156;17.038;2023-03-08T07:53:31;9.15;;;4.20;;
52354;SDS011;38286;51.156;17.038;2023-03-08T07:55:58;16.05;;;4.70;;
52354;SDS011;38286;51.156;17.038;2023-03-08T07:58:24;6.85;;;4.68;;
52354;SDS011;38286;51.156;17.038;2023-03-08T08:00:50;10.57;;;5.00;;
52354;SDS011;38286;51.156;17.038;2023-03-08T08:03:16;11.35;;;5.00;;
52354;SDS011;38286;51.156;17.038;2023-03-08T08:05:42;11.98;;;4.63;;
52354;SDS011;38286;51.156;17.038;2023-03-08T08:08:08;8.60;;;4.45;;
52354;SDS011;38286;51.156;17.038;2023-03-08T08:10:34;9.50;;;4.95;;
52354;SDS011;38286;51.156;17.038;2023-03-08T08:13:00;8.50;;;4.43;;
52354;SDS011;38286;51.156;17.038;2023-03-08T08:15:26;9.88;;;4.55;;
52354;SDS011;38286;51.156;17.038;2023-03-08T08:17:54;8.02;;;3.78;;
52354;SDS011;38286;51.156;17.038;2023-03-08T08:20:20;12.27;;;4.55;;
52354;SDS011;38286;51.156;17.038;2023-03-08T08:22:46;8.10;;;4.40;;
52354;SDS011;38286;51.156;17.038;2023-03-08T08:25:11;7.97;;;4.43;;
52354;SDS011;38286;51.156;17.038;2023-03-08T08:27:37;11.55;;;4.88;;
52354;SDS011;38286;51.156;17.038;2023-03-08T08:30:03;9.77;;;5.05;;
52354;SDS011;38286;51.156;17.038;2023-03-08T08:32:29;11.95;;;5.80;;
52354;SDS011;38286;51.156;17.038;2023-03-08T08:34:55;8.50;;;4.57;;
52354;SDS011;38286;51.156;17.038;2023-03-08T08:37:20;9.52;;;4.57;;
52354;SDS011;38286;51.156;17.038;2023-03-08T08:39:47;13.55;;;4.25;;
52354;SDS011;38286;51.156;17.038;2023-03-08T08:42:12;6.55;;;3.60;;
52354;SDS011;38286;51.156;17.038;2023-03-08T08:44:38;10.18;;;4.10;;
52354;SDS011;38286;51.156;17.038;2023-03-08T08:47:03;9.30;;;4.68;;
52354;SDS011;38286;51.156;17.038;2023-03-08T08:49:29;10.02;;;5.15;;
52354;SDS011;38286;51.156;17.038;2023-03-08T08:51:55;13.32;;;6.10;;
52354;SDS011;38286;51.156;17.038;2023-03-08T08:54:20;9.88;;;4.72;;
52354;SDS011;38286;51.156;17.038;2023-03-08T08:56:46;7.72;;;3.90;;
52354;SDS011;38286;51.156;17.038;2023-03-08T08:59:12;8.07;;;4.05;;
52354;SDS011;38286;51.156;17.038;2023-03-08T09:01:38;8.80;;;3.97;;
52354;SDS011;38286;51.156;17.038;2023-03-08T09:04:11;8.40;;;4.22;;
52354;SDS011;38286;51.156;17.038;2023-03-08T09:06:38;7.93;;;3.78;;
52354;SDS011;38286;51.156;17.038;2023-03-08T09:09:04;11.75;;;4.13;;
52354;SDS011;38286;51.156;17.038;2023-03-08T09:11:30;10.35;;;4.90;;
52354;SDS011;38286;51.156;17.038;2023-03-08T09:13:56;12.00;;;4.60;;
52354;SDS011;38286;51.156;17.038;2023-03-08T09:16:26;8.43;;;3.85;;
52354;SDS011;38286;51.156;17.038;2023-03-08T09:18:54;9.38;;;3.45;;
52354;SDS011;38286;51.156;17.038;2023-03-08T09:21:21;6.38;;;3.35;;
52354;SDS011;38286;51.156;17.038;2023-03-08T09:23:47;9.98;;;4.70;;
52354;SDS011;38286;51.156;17.038;2023-03-08T09:26:12;14.07;;;5.03;;
52354;SDS011;38286;51.156;17.038;2023-03-08T09:28:38;10.07;;;5.35;;
52354;SDS011;38286;51.156;17.038;2023-03-08T09:31:05;9.18;;;4.65;;
52354;SDS011;38286;51.156;17.038;2023-03-08T09:33:38;9.30;;;4.15;;
52354;SDS011;38286;51.156;17.038;2023-03-08T09:36:04;8.85;;;4.50;;
52354;SDS011;38286;51.156;17.038;2023-03-08T09:38:30;9.88;;;4.75;;
52354;SDS011;38286;51.156;17.038;2023-03-08T09:40:58;9.57;;;4.68;;
52354;SDS011;38286;51.156;17.038;2023-03-08T09:46:27;12.45;;;4.38;;
52354;SDS011;38286;51.156;17.038;2023-03-08T09:48:55;8.25;;;4.72;;
52354;SDS011;38286;51.156;17.038;2023-03-08T09:51:25;8.90;;;4.40;;
52354;SDS011;38286;51.156;17.038;2023-03-08T09:54:01;9.38;;;3.95;;
52354;SDS011;38286;51.156;17.038;2023-03-08T09:56:47;9.20;;;4.47;;
52354;SDS011;38286;51.156;17.038;2023-03-08T09:59:23;9.98;;;3.75;;
52354;SDS011;38286;51.156;17.038;2023-03-08T10:07:42;9.10;;;3.97;;
52354;SDS011;38286;51.156;17.038;2023-03-08T10:10:18;10.27;;;4.30;;
52354;SDS011;38286;51.156;17.038;2023-03-08T10:15:30;7.05;;;3.65;;
52354;SDS011;38286;51.156;17.038;2023-03-08T10:17:58;7.55;;;4.18;;
52354;SDS011;38286;51.156;17.038;2023-03-08T10:20:27;5.55;;;3.58;;
52354;SDS011;38286;51.156;17.038;2023-03-08T10:23:01;6.63;;;4.30;;
52354;SDS011;38286;51.156;17.038;2023-03-08T10:25:44;8.43;;;4.53;;
52354;SDS011;38286;51.156;17.038;2023-03-08T10:28:17;8.95;;;4.50;;
52354;SDS011;38286;51.156;17.038;2023-03-08T10:30:49;8.32;;;4.68;;
52354;SDS011;38286;51.156;17.038;2023-03-08T10:33:17;8.52;;;4.07;;
52354;SDS011;38286;51.156;17.038;2023-03-08T10:36:06;7.32;;;3.97;;
52354;SDS011;38286;51.156;17.038;2023-03-08T10:38:37;7.45;;;4.35;;
52354;SDS011;38286;51.156;17.038;2023-03-08T10:43:32;8.68;;;5.15;;
52354;SDS011;38286;51.156;17.038;2023-03-08T10:46:01;8.00;;;4.85;;
52354;SDS011;38286;51.156;17.038;2023-03-08T10:48:28;10.65;;;6.32;;
52354;SDS011;38286;51.156;17.038;2023-03-08T10:50:59;12.93;;;6.30;;
52354;SDS011;38286;51.156;17.038;2023-03-08T10:53:28;15.00;;;7.72;;
52354;SDS011;38286;51.156;17.038;2023-03-08T10:55:55;16.55;;;7.38;;
52354;SDS011;38286;51.156;17.038;2023-03-08T11:00:57;11.85;;;6.93;;
52354;SDS011;38286;51.156;17.038;2023-03-08T11:03:27;14.95;;;6.50;;
52354;SDS011;38286;51.156;17.038;2023-03-08T11:05:55;11.48;;;6.00;;
52354;SDS011;38286;51.156;17.038;2023-03-08T11:08:38;13.23;;;7.18;;
52354;SDS011;38286;51.156;17.038;2023-03-08T11:11:09;14.18;;;7.63;;
52354;SDS011;38286;51.156;17.038;2023-03-08T11:13:38;16.83;;;8.65;;
52354;SDS011;38286;51.156;17.038;2023-03-08T11:18:46;14.75;;;7.93;;
52354;SDS011;38286;51.156;17.038;2023-03-08T11:21:28;11.27;;;7.53;;
52354;SDS011;38286;51.156;17.038;2023-03-08T11:24:04;16.17;;;8.18;;
52354;SDS011;38286;51.156;17.038;2023-03-08T11:26:54;15.95;;;8.05;;
52354;SDS011;38286;51.156;17.038;2023-03-08T11:29:40;16.48;;;8.95;;
52354;SDS011;38286;51.156;17.038;2023-03-08T11:35:46;14.32;;;8.05;;
52354;SDS011;38286;51.156;17.038;2023-03-08T11:43:50;14.45;;;8.30;;
52354;SDS011;38286;51.156;17.038;2023-03-08T11:51:35;14.98;;;9.65;;
52354;SDS011;38286;51.156;17.038;2023-03-08T11:57:30;13.40;;;7.20;;
52354;SDS011;38286;51.156;17.038;2023-03-08T12:00:03;12.02;;;7.07;;
52354;SDS011;38286;51.156;17.038;2023-03-08T12:02:37;15.40;;;7.40;;
52354;SDS011;38286;51.156;17.038;2023-03-08T12:05:26;12.98;;;7.05;;
52354;SDS011;38286;51.156;17.038;2023-03-08T12:07:55;14.20;;;6.88;;
52354;SDS011;38286;51.156;17.038;2023-03-08T12:10:27;14.27;;;7.70;;
52354;SDS011;38286;51.156;17.038;2023-03-08T12:13:02;15.65;;;7.60;;
52354;SDS011;38286;51.156;17.038;2023-03-08T12:18:09;14.75;;;7.40;;
52354;SDS011;38286;51.156;17.038;2023-03-08T12:20:38;12.60;;;6.72;;
52354;SDS011;38286;51.156;17.038;2023-03-08T12:25:53;12.98;;;5.80;;
52354;SDS011;38286;51.156;17.038;2023-03-08T12:28:27;12.02;;;6.32;;
52354;SDS011;38286;51.156;17.038;2023-03-08T12:31:02;12.55;;;6.20;;
52354;SDS011;38286;51.156;17.038;2023-03-08T12:33:32;10.52;;;5.45;;
52354;SDS011;38286;51.156;17.038;2023-03-08T12:36:00;10.27;;;5.45;;
52354;SDS011;38286;51.156;17.038;2023-03-08T12:38:31;10.30;;;5.90;;
52354;SDS011;38286;51.156;17.038;2023-03-08T12:40:59;14.00;;;6.95;;
52354;SDS011;38286;51.156;17.038;2023-03-08T12:48:25;12.43;;;7.15;;
52354;SDS011;38286;51.156;17.038;2023-03-08T12:53:22;14.98;;;7.50;;
52354;SDS011;38286;51.156;17.038;2023-03-08T12:56:20;13.35;;;6.15;;
52354;SDS011;38286;51.156;17.038;2023-03-08T12:59:01;12.85;;;7.15;;
52354;SDS011;38286;51.156;17.038;2023-03-08T13:01:43;15.20;;;8.07;;
52354;SDS011;38286;51.156;17.038;2023-03-08T13:17:47;19.40;;;9.43;;
52354;SDS011;38286;51.156;17.038;2023-03-08T13:20:18;17.02;;;8.82;;
52354;SDS011;38286;51.156;17.038;2023-03-08T13:22:49;18.50;;;9.75;;
52354;SDS011;38286;51.156;17.038;2023-03-08T13:28:03;18.15;;;9.30;;
52354;SDS011;38286;51.156;17.038;2023-03-08T13:30:49;15.90;;;9.43;;
52354;SDS011;38286;51.156;17.038;2023-03-08T13:36:12;19.40;;;10.00;;
52354;SDS011;38286;51.156;17.038;2023-03-08T13:41:49;20.58;;;10.52;;
52354;SDS011;38286;51.156;17.038;2023-03-08T13:44:25;20.23;;;9.90;;
52354;SDS011;38286;51.156;17.038;2023-03-08T13:46:53;16.83;;;8.75;;
52354;SDS011;38286;51.156;17.038;2023-03-08T13:49:35;18.52;;;9.68;;
52354;SDS011;38286;51.156;17.038;2023-03-08T13:52:03;19.90;;;10.77;;
52354;SDS011;38286;51.156;17.038;2023-03-08T13:54:40;17.27;;;8.98;;
52354;SDS011;38286;51.156;17.038;2023-03-08T13:57:16;21.13;;;10.38;;
52354;SDS011;38286;51.156;17.038;2023-03-08T13:59:48;18.88;;;9.77;;
52354;SDS011;38286;51.156;17.038;2023-03-08T14:02:17;17.58;;;9.52;;
52354;SDS011;38286;51.156;17.038;2023-03-08T14:04:45;19.77;;;10.20;;
52354;SDS011;38286;51.156;17.038;2023-03-08T14:07:16;17.42;;;9.38;;
52354;SDS011;38286;51.156;17.038;2023-03-08T14:09:45;18.52;;;9.98;;
52354;SDS011;38286;51.156;17.038;2023-03-08T14:12:11;17.00;;;9.70;;
52354;SDS011;38286;51.156;17.038;2023-03-08T14:14:41;16.08;;;8.30;;
52354;SDS011;38286;51.156;17.038;2023-03-08T14:17:27;18.88;;;9.95;;
52354;SDS011;38286;51.156;17.038;2023-03-08T14:19:58;17.65;;;10.07;;
52354;SDS011;38286;51.156;17.038;2023-03-08T14:22:25;20.23;;;10.88;;
52354;SDS011;38286;51.156;17.038;2023-03-08T14:24:53;18.65;;;10.18;;
52354;SDS011;38286;51.156;17.038;2023-03-08T14:29:46;16.52;;;8.63;;
52354;SDS011;38286;51.156;17.038;2023-03-08T14:34:45;16.83;;;9.20;;
52354;SDS011;38286;51.156;17.038;2023-03-08T14:37:22;18.75;;;8.50;;
52354;SDS011;38286;51.156;17.038;2023-03-08T14:39:51;16.10;;;7.70;;
52354;SDS011;38286;51.156;17.038;2023-03-08T14:42:29;19.60;;;9.93;;
52354;SDS011;38286;51.156;17.038;2023-03-08T14:45:04;19.70;;;10.13;;
52354;SDS011;38286;51.156;17.038;2023-03-08T14:47:46;18.73;;;9.93;;
52354;SDS011;38286;51.156;17.038;2023-03-08T14:50:19;19.52;;;10.13;;
52354;SDS011;38286;51.156;17.038;2023-03-08T14:52:50;19.40;;;11.18;;
52354;SDS011;38286;51.156;17.038;2023-03-08T14:55:21;20.73;;;10.68;;
52354;SDS011;38286;51.156;17.038;2023-03-08T14:57:52;15.77;;;8.45;;
52354;SDS011;38286;51.156;17.038;2023-03-08T15:00:20;21.15;;;10.00;;
52354;SDS011;38286;51.156;17.038;2023-03-08T15:02:46;20.02;;;9.90;;
52354;SDS011;38286;51.156;17.038;2023-03-08T15:05:16;21.45;;;11.15;;
52354;SDS011;38286;51.156;17.038;2023-03-08T15:07:44;21.58;;;11.52;;
52354;SDS011;38286;51.156;17.038;2023-03-08T15:12:50;21.17;;;11.82;;
52354;SDS011;38286;51.156;17.038;2023-03-08T15:15:16;23.55;;;11.40;;
52354;SDS011;38286;51.156;17.038;2023-03-08T15:17:42;22.15;;;11.77;;
52354;SDS011;38286;51.156;17.038;2023-03-08T15:20:08;26.58;;;12.98;;
52354;SDS011;38286;51.156;17.038;2023-03-08T15:22:37;24.38;;;11.45;;
52354;SDS011;38286;51.156;17.038;2023-03-08T15:25:13;27.85;;;11.90;;
52354;SDS011;38286;51.156;17.038;2023-03-08T15:27:39;25.38;;;12.40;;
52354;SDS011;38286;51.156;17.038;2023-03-08T15:30:08;26.95;;;13.55;;
52354;SDS011;38286;51.156;17.038;2023-03-08T15:32:38;24.27;;;12.38;;
52354;SDS011;38286;51.156;17.038;2023-03-08T15:35:04;24.45;;;12.60;;
52354;SDS011;38286;51.156;17.038;2023-03-08T15:37:30;26.98;;;12.13;;
52354;SDS011;38286;51.156;17.038;2023-03-08T15:39:56;30.40;;;14.88;;
52354;SDS011;38286;51.156;17.038;2023-03-08T15:42:21;29.02;;;14.23;;
52354;SDS011;38286;51.156;17.038;2023-03-08T15:44:47;31.65;;;15.43;;
52354;SDS011;38286;51.156;17.038;2023-03-08T15:47:12;30.42;;;14.40;;
52354;SDS011;38286;51.156;17.038;2023-03-08T15:49:38;30.40;;;15.13;;
52354;SDS011;38286;51.156;17.038;2023-03-08T15:52:04;35.17;;;14.93;;
52354;SDS011;38286;51.156;17.038;2023-03-08T15:54:30;32.28;;;16.50;;
52354;SDS011;38286;51.156;17.038;2023-03-08T15:56:55;30.15;;;15.10;;
52354;SDS011;38286;51.156;17.038;2023-03-08T15:59:22;30.83;;;16.08;;
52354;SDS011;38286;51.156;17.038;2023-03-08T16:01:48;32.75;;;16.10;;